Time;durP1;ratioP1;P1;durP2;ratioP2;P2;SDS_P1;SDS_P2;PMS_P1;PMS_P2;Temp;Humidity;BMP_temperature;BMP_pressure;BME280_temperature;BME280_humidity;BME280_pressure;Samples;Min_cycle;Max_cycle;Signal;HPM_P1;HPM_P2
2023/09/09 00:01:55;;;;;;;4.40;4.00;;;18.70;85.80;;;;;;949173;149;27374;-76
2023/09/09 00:04:22;;;;;;;4.70;4.30;;;18.60;86.50;;;;;;947808;149;27450;-76
2023/09/09 00:06:48;;;;;;;4.40;4.10;;;18.60;87.10;;;;;;947387;149;27332;-77
2023/09/09 00:09:15;;;;;;;4.78;4.37;;;18.60;87.60;;;;;;945473;149;27314;-77
2023/09/09 00:11:42;;;;;;;4.30;3.90;;;18.60;88.60;;;;;;949274;149;27267;-77
2023/09/09 00:14:08;;;;;;;4.97;4.58;;;18.50;88.10;;;;;;950018;149;27437;-77
2023/09/09 00:16:35;;;;;;;6.72;4.58;;;18.50;88.70;;;;;;947608;149;27439;-77
2023/09/09 00:19:02;;;;;;;4.78;4.40;;;18.50;89.60;;;;;;947000;149;27304;-76
2023/09/09 00:21:29;;;;;;;4.90;4.22;;;18.40;90.20;;;;;;949719;149;27338;-76
2023/09/09 00:23:55;;;;;;;5.92;5.42;;;18.40;90.50;;;;;;946266;149;27354;-77
2023/09/09 00:26:21;;;;;;;5.97;5.40;;;18.40;91.10;;;;;;950732;149;27336;-76
2023/09/09 00:28:48;;;;;;;6.33;5.62;;;18.40;91.60;;;;;;948154;149;27368;-76
2023/09/09 00:31:15;;;;;;;5.95;5.45;;;18.40;92.30;;;;;;948810;149;27383;-77
2023/09/09 00:33:41;;;;;;;6.60;6.05;;;18.40;92.90;;;;;;949330;149;27370;-77
2023/09/09 00:36:08;;;;;;;6.33;5.83;;;18.40;93.50;;;;;;949700;149;27452;-77
2023/09/09 00:38:34;;;;;;;5.90;5.40;;;18.40;93.90;;;;;;947606;149;27362;-76
2023/09/09 00:41:16;;;;;;;7.58;5.40;;;18.40;94.50;;;;;;949027;149;27325;-77
2023/09/09 00:43:42;;;;;;;6.33;5.80;;;18.40;95.00;;;;;;946360;148;27306;-76
2023/09/09 00:46:09;;;;;;;5.50;5.00;;;18.40;95.20;;;;;;947049;151;27351;-76
2023/09/09 00:48:35;;;;;;;4.62;4.22;;;18.40;95.50;;;;;;946610;151;27468;-77
2023/09/09 00:51:02;;;;;;;5.12;4.62;;;18.30;95.60;;;;;;945778;151;27355;-76
2023/09/09 00:53:29;;;;;;;4.90;4.47;;;18.30;95.70;;;;;;945951;148;27699;-77
2023/09/09 00:55:55;;;;;;;4.53;4.12;;;18.30;96.00;;;;;;945858;151;27348;-76
2023/09/09 00:58:23;;;;;;;3.95;3.65;;;18.30;96.20;;;;;;947217;151;27491;-77
2023/09/09 01:00:48;;;;;;;3.95;3.65;;;18.30;96.40;;;;;;946720;151;27359;-77
2023/09/09 01:03:15;;;;;;;4.62;4.25;;;18.20;96.40;;;;;;945977;148;27473;-77
2023/09/09 01:05:42;;;;;;;6.30;4.08;;;18.20;96.50;;;;;;946904;151;27437;-77
2023/09/09 01:08:08;;;;;;;4.62;4.22;;;18.20;96.50;;;;;;946733;151;27368;-76
2023/09/09 01:10:35;;;;;;;4.28;3.90;;;18.10;96.50;;;;;;947345;151;27485;-77
2023/09/09 01:13:01;;;;;;;3.85;3.37;;;18.10;96.50;;;;;;946679;151;27401;-77
2023/09/09 01:15:28;;;;;;;4.25;3.90;;;18.00;96.50;;;;;;945999;151;27324;-74
2023/09/09 01:17:55;;;;;;;4.80;4.37;;;18.00;96.60;;;;;;944506;151;27657;-76
2023/09/09 01:20:21;;;;;;;4.10;3.80;;;18.00;96.60;;;;;;946967;151;27364;-76
2023/09/09 01:22:50;;;;;;;6.03;3.95;;;17.90;97.00;;;;;;945298;151;27464;-76
2023/09/09 01:25:17;;;;;;;4.70;4.30;;;17.80;96.90;;;;;;944301;151;27333;-76
2023/09/09 01:27:43;;;;;;;4.65;4.25;;;17.80;97.20;;;;;;946896;151;27370;-76
2023/09/09 01:30:13;;;;;;;4.83;4.42;;;17.70;97.50;;;;;;947234;151;27975;-76
2023/09/09 01:32:36;;;;;;;4.60;4.20;;;17.70;97.80;;;;;;945171;151;27321;-76
2023/09/09 01:35:04;;;;;;;4.42;4.03;;;17.60;98.20;;;;;;945872;151;27335;-76
2023/09/09 01:37:30;;;;;;;4.95;4.55;;;17.60;98.70;;;;;;946663;151;27448;-76
2023/09/09 01:39:56;;;;;;;5.25;4.75;;;17.60;99.10;;;;;;946890;151;27366;-76
2023/09/09 01:42:23;;;;;;;5.85;4.50;;;17.50;99.60;;;;;;947165;151;27387;-76
2023/09/09 01:44:49;;;;;;;5.10;4.60;;;17.50;99.90;;;;;;946914;148;27449;-76
2023/09/09 01:47:16;;;;;;;4.47;4.08;;;17.50;99.90;;;;;;950854;148;27443;-77
2023/09/09 01:49:43;;;;;;;4.62;4.20;;;17.50;99.90;;;;;;950208;148;27319;-76
2023/09/09 01:52:09;;;;;;;4.53;4.12;;;17.50;99.90;;;;;;949745;147;27361;-76
2023/09/09 01:54:36;;;;;;;4.55;4.15;;;17.50;99.90;;;;;;950839;148;27414;-76
2023/09/09 01:57:02;;;;;;;4.50;4.10;;;17.50;99.90;;;;;;950473;148;27324;-76
2023/09/09 01:59:29;;;;;;;4.70;4.30;;;17.50;99.90;;;;;;949817;148;27380;-76
2023/09/09 02:01:56;;;;;;;4.70;3.87;;;17.50;99.90;;;;;;950758;148;27468;-76
2023/09/09 02:04:22;;;;;;;4.80;4.37;;;17.50;99.90;;;;;;950698;147;27376;-76
2023/09/09 02:06:49;;;;;;;5.00;4.60;;;17.40;99.90;;;;;;950048;148;27354;-76
2023/09/09 02:09:15;;;;;;;5.25;4.75;;;17.50;99.90;;;;;;949808;148;27312;-76
2023/09/09 02:11:42;;;;;;;5.00;4.60;;;17.50;99.90;;;;;;950644;148;27352;-76
2023/09/09 02:14:09;;;;;;;5.10;4.70;;;17.50;99.90;;;;;;949237;147;27466;-76
2023/09/09 02:16:35;;;;;;;4.75;4.37;;;17.50;99.90;;;;;;949881;147;27439;-76
2023/09/09 02:19:02;;;;;;;4.90;4.50;;;17.50;99.90;;;;;;951019;148;27462;-76
2023/09/09 02:21:28;;;;;;;4.67;4.35;;;17.50;99.90;;;;;;950822;148;27328;-76
2023/09/09 02:23:55;;;;;;;4.50;4.20;;;17.50;99.90;;;;;;950294;147;27356;-76
2023/09/09 02:26:21;;;;;;;4.72;4.42;;;17.40;99.90;;;;;;949866;148;27352;-74
2023/09/09 02:28:49;;;;;;;6.05;4.33;;;17.40;99.90;;;;;;949686;148;27983;-74
2023/09/09 02:31:15;;;;;;;4.75;4.30;;;17.50;99.90;;;;;;950663;148;27201;-74
2023/09/09 02:33:41;;;;;;;5.17;4.67;;;17.40;99.90;;;;;;950266;148;27819;-77
2023/09/09 02:36:08;;;;;;;5.15;4.75;;;17.40;99.90;;;;;;950222;148;27863;-74
2023/09/09 02:38:35;;;;;;;5.15;4.55;;;17.40;99.90;;;;;;949833;148;27397;-74
2023/09/09 02:41:01;;;;;;;5.37;4.87;;;17.40;99.90;;;;;;950392;148;27336;-74
2023/09/09 02:43:28;;;;;;;5.20;4.80;;;17.40;99.90;;;;;;950312;147;27296;-76
2023/09/09 02:45:54;;;;;;;5.12;4.72;;;17.40;99.90;;;;;;948958;147;27402;-74
2023/09/09 02:48:21;;;;;;;4.85;4.45;;;17.40;99.90;;;;;;944241;149;27325;-74
2023/09/09 02:50:47;;;;;;;5.87;5.28;;;17.40;99.90;;;;;;944358;149;28320;-74
2023/09/09 02:53:14;;;;;;;5.08;4.62;;;17.40;99.90;;;;;;945369;149;27386;-76
2023/09/09 02:55:41;;;;;;;5.55;5.05;;;17.40;99.90;;;;;;944205;148;27484;-76
2023/09/09 02:58:10;;;;;;;4.97;4.58;;;17.30;99.90;;;;;;943915;149;27357;-74
2023/09/09 03:00:34;;;;;;;5.03;4.62;;;17.30;99.90;;;;;;943876;149;27348;-73
2023/09/09 03:03:00;;;;;;;4.60;3.80;;;17.30;99.90;;;;;;943858;149;27435;-74
2023/09/09 03:05:27;;;;;;;4.70;4.30;;;17.30;99.90;;;;;;943671;149;27448;-75
2023/09/09 03:07:53;;;;;;;4.70;4.40;;;17.30;99.90;;;;;;944572;149;27720;-74
2023/09/09 03:10:20;;;;;;;4.97;4.60;;;17.20;99.90;;;;;;944103;149;27317;-73
2023/09/09 03:12:47;;;;;;;5.55;5.05;;;17.20;99.90;;;;;;942691;149;27372;-75
2023/09/09 03:15:13;;;;;;;5.25;4.85;;;17.20;99.90;;;;;;943593;148;27464;-74
2023/09/09 03:17:40;;;;;;;5.12;4.62;;;17.20;99.90;;;;;;944361;149;27462;-76
2023/09/09 03:20:07;;;;;;;5.92;5.30;;;17.10;99.90;;;;;;943804;148;27463;-74
2023/09/09 03:22:34;;;;;;;5.22;4.72;;;17.10;99.90;;;;;;934865;149;27462;-74
2023/09/09 03:25:00;;;;;;;6.30;5.20;;;17.10;99.90;;;;;;951814;147;27318;-74
2023/09/09 03:27:27;;;;;;;5.87;5.05;;;17.10;99.90;;;;;;950552;149;27317;-74
2023/09/09 03:29:53;;;;;;;5.00;4.60;;;17.10;99.90;;;;;;950188;149;27353;-77
2023/09/09 03:32:20;;;;;;;6.33;5.72;;;17.00;99.90;;;;;;950987;149;27404;-73
2023/09/09 03:34:46;;;;;;;5.42;4.92;;;17.00;99.90;;;;;;950668;147;27278;-74
2023/09/09 03:37:13;;;;;;;5.40;5.00;;;17.00;99.90;;;;;;950741;148;27409;-74
2023/09/09 03:39:41;;;;;;;8.63;4.87;;;17.00;99.90;;;;;;950233;148;27325;-75
2023/09/09 03:42:06;;;;;;;5.22;4.72;;;17.00;99.90;;;;;;950582;149;27394;-73
2023/09/09 03:44:33;;;;;;;5.50;4.70;;;16.90;99.90;;;;;;949252;147;27379;-74
2023/09/09 03:46:59;;;;;;;5.97;4.83;;;16.90;99.90;;;;;;955018;147;27445;-77
2023/09/09 03:49:26;;;;;;;5.05;4.65;;;16.90;99.90;;;;;;958962;146;27329;-76
2023/09/09 03:51:52;;;;;;;5.35;4.78;;;16.90;99.90;;;;;;957424;148;27336;-77
2023/09/09 03:54:19;;;;;;;5.00;4.58;;;16.90;99.90;;;;;;958362;148;28138;-77
2023/09/09 03:56:46;;;;;;;5.78;4.22;;;16.90;99.90;;;;;;958363;149;27299;-76
2023/09/09 03:59:12;;;;;;;5.30;4.80;;;16.90;99.90;;;;;;958574;148;27395;-76
2023/09/09 04:01:39;;;;;;;5.17;4.67;;;16.90;99.90;;;;;;958749;148;27399;-76
2023/09/09 04:04:05;;;;;;;5.30;3.98;;;16.90;99.90;;;;;;959294;146;27335;-76
2023/09/09 04:06:32;;;;;;;4.17;3.87;;;16.80;99.90;;;;;;958167;146;27351;-76
2023/09/09 04:08:59;;;;;;;4.30;3.92;;;16.80;99.90;;;;;;957365;149;27449;-76
2023/09/09 04:11:25;;;;;;;4.12;3.83;;;16.70;99.90;;;;;;959253;149;27415;-76
2023/09/09 04:13:52;;;;;;;4.25;3.95;;;16.70;99.90;;;;;;958521;146;27419;-77
2023/09/09 04:16:18;;;;;;;4.28;3.87;;;16.70;99.90;;;;;;958040;149;27323;-76
2023/09/09 04:18:45;;;;;;;4.62;4.22;;;16.60;99.90;;;;;;958435;148;27274;-76
2023/09/09 04:21:12;;;;;;;3.87;3.58;;;16.60;99.90;;;;;;957465;148;27359;-76
2023/09/09 04:23:38;;;;;;;4.25;3.85;;;16.50;99.90;;;;;;958914;148;27292;-76
2023/09/09 04:26:05;;;;;;;4.22;3.87;;;16.50;99.90;;;;;;958817;146;27343;-76
2023/09/09 04:28:31;;;;;;;4.10;3.80;;;16.40;99.90;;;;;;958107;149;27351;-76
2023/09/09 04:30:58;;;;;;;4.33;3.87;;;16.40;99.90;;;;;;957624;149;27304;-76
2023/09/09 04:33:24;;;;;;;4.70;4.30;;;16.30;99.90;;;;;;958710;149;27287;-76
2023/09/09 04:35:51;;;;;;;4.35;4.05;;;16.30;99.90;;;;;;958021;146;27699;-76
2023/09/09 04:38:19;;;;;;;4.22;3.92;;;16.30;99.90;;;;;;958886;148;27357;-76
2023/09/09 04:40:44;;;;;;;4.33;4.03;;;16.30;99.90;;;;;;957125;149;27392;-76
2023/09/09 04:43:11;;;;;;;4.97;4.15;;;16.20;99.90;;;;;;957951;149;27300;-76
2023/09/09 04:45:37;;;;;;;4.53;4.12;;;16.20;99.90;;;;;;957593;148;27370;-76
2023/09/09 04:48:05;;;;;;;4.30;4.00;;;16.20;99.90;;;;;;962164;148;27375;-76
2023/09/09 04:50:31;;;;;;;5.47;4.50;;;16.20;99.90;;;;;;961197;145;27285;-76
2023/09/09 04:52:58;;;;;;;4.37;3.98;;;16.20;99.90;;;;;;963576;148;27248;-76
2023/09/09 04:55:24;;;;;;;4.35;4.03;;;16.20;99.90;;;;;;962696;145;27441;-76
2023/09/09 04:57:50;;;;;;;4.30;3.90;;;16.10;99.90;;;;;;962517;148;27431;-76
2023/09/09 05:00:17;;;;;;;4.73;4.33;;;16.10;99.90;;;;;;961833;148;27387;-76
2023/09/09 05:02:44;;;;;;;4.92;4.53;;;16.10;99.90;;;;;;961820;148;27435;-76
2023/09/09 05:05:10;;;;;;;4.42;4.12;;;16.10;99.90;;;;;;962648;145;27409;-76
2023/09/09 05:07:37;;;;;;;5.00;4.50;;;16.10;99.90;;;;;;962553;148;27399;-76
2023/09/09 05:10:06;;;;;;;5.17;4.67;;;16.10;99.90;;;;;;963632;148;27704;-76
2023/09/09 05:12:30;;;;;;;4.47;4.08;;;16.20;99.90;;;;;;961170;148;27886;-76
2023/09/09 05:14:56;;;;;;;5.37;4.10;;;16.20;99.90;;;;;;960984;145;27303;-76
2023/09/09 05:17:23;;;;;;;4.85;4.40;;;16.30;99.90;;;;;;962959;145;27295;-75
2023/09/09 05:19:50;;;;;;;4.50;4.20;;;16.50;99.90;;;;;;964015;148;27889;-74
2023/09/09 05:22:16;;;;;;;4.50;4.20;;;16.60;99.90;;;;;;962247;148;27306;-73
2023/09/09 05:24:43;;;;;;;4.70;4.20;;;16.80;99.90;;;;;;961831;145;27376;-73
2023/09/09 05:27:09;;;;;;;4.42;4.03;;;17.00;99.90;;;;;;963096;148;27275;-75
2023/09/09 05:29:36;;;;;;;5.80;4.75;;;17.20;99.90;;;;;;963348;148;27339;-76
2023/09/09 05:32:03;;;;;;;4.85;4.35;;;17.40;99.90;;;;;;963287;148;27853;-74
2023/09/09 05:34:29;;;;;;;4.92;4.53;;;17.80;99.90;;;;;;963048;145;27286;-74
2023/09/09 05:36:56;;;;;;;7.12;4.00;;;18.20;99.90;;;;;;963315;148;27279;-75
2023/09/09 05:39:22;;;;;;;4.22;3.83;;;18.70;99.90;;;;;;963144;148;27391;-77
2023/09/09 05:41:49;;;;;;;4.25;3.58;;;19.30;99.90;;;;;;960239;148;27447;-74
2023/09/09 05:44:16;;;;;;;4.72;4.10;;;19.80;99.90;;;;;;963340;145;27360;-75
2023/09/09 05:46:42;;;;;;;4.33;4.00;;;20.40;99.90;;;;;;962189;148;27303;-75
2023/09/09 05:49:09;;;;;;;3.40;3.12;;;21.00;99.90;;;;;;952745;147;27341;-75
2023/09/09 05:51:35;;;;;;;4.05;3.55;;;21.60;99.90;;;;;;949890;148;27416;-77
2023/09/09 05:54:02;;;;;;;4.65;3.40;;;22.30;99.90;;;;;;948662;149;27833;-72
2023/09/09 05:56:29;;;;;;;3.75;3.22;;;22.90;99.90;;;;;;950106;149;27310;-72
2023/09/09 05:58:55;;;;;;;3.52;3.22;;;23.50;99.90;;;;;;950571;149;27275;-73
2023/09/09 06:01:22;;;;;;;3.65;3.35;;;24.10;99.90;;;;;;950140;149;27398;-74
2023/09/09 06:03:48;;;;;;;3.85;3.55;;;24.70;99.50;;;;;;952312;147;27361;-72
2023/09/09 06:06:15;;;;;;;4.17;3.55;;;25.40;97.70;;;;;;950115;147;27324;-72
2023/09/09 06:08:41;;;;;;;4.03;3.72;;;26.00;94.70;;;;;;952148;148;27286;-75
2023/09/09 06:11:08;;;;;;;4.17;3.87;;;26.50;92.70;;;;;;951338;147;27321;-73
2023/09/09 06:13:35;;;;;;;3.62;3.33;;;27.10;90.70;;;;;;950265;149;27335;-73
2023/09/09 06:16:01;;;;;;;3.77;3.47;;;27.70;87.80;;;;;;950523;147;28293;-72
2023/09/09 06:18:28;;;;;;;4.58;3.72;;;28.20;84.60;;;;;;949866;147;27253;-73
2023/09/09 06:20:54;;;;;;;4.45;4.05;;;28.70;81.30;;;;;;950688;148;27333;-72
2023/09/09 06:23:21;;;;;;;4.17;3.77;;;29.30;78.80;;;;;;950749;147;27313;-75
2023/09/09 06:25:48;;;;;;;4.25;3.95;;;29.80;76.40;;;;;;950759;147;28256;-75
2023/09/09 06:28:14;;;;;;;3.58;3.27;;;30.30;74.20;;;;;;949331;149;27305;-75
2023/09/09 06:30:44;;;;;;;3.67;3.37;;;30.80;72.50;;;;;;950680;147;27294;-74
2023/09/09 06:33:10;;;;;;;3.98;3.67;;;31.30;70.60;;;;;;950014;147;27324;-75
2023/09/09 06:35:37;;;;;;;4.65;4.25;;;31.80;69.20;;;;;;951074;147;27399;-75
2023/09/09 06:38:03;;;;;;;4.28;3.90;;;32.30;67.40;;;;;;949666;148;27269;-75
2023/09/09 06:40:30;;;;;;;4.92;3.77;;;32.70;65.70;;;;;;950872;149;27339;-75
2023/09/09 06:42:57;;;;;;;3.65;3.35;;;33.10;64.30;;;;;;948310;147;27692;-75
2023/09/09 06:45:23;;;;;;;3.62;3.37;;;33.50;63.30;;;;;;950501;147;27360;-75
2023/09/09 06:47:50;;;;;;;3.77;3.35;;;33.90;62.00;;;;;;949387;147;26395;-76
2023/09/09 06:50:16;;;;;;;3.58;3.37;;;34.20;60.60;;;;;;950346;147;27368;-76
2023/09/09 06:52:43;;;;;;;3.65;3.35;;;34.60;59.60;;;;;;949604;149;26221;-75
2023/09/09 06:55:10;;;;;;;3.60;3.30;;;34.90;58.70;;;;;;951307;147;27408;-74
2023/09/09 06:57:36;;;;;;;3.87;3.58;;;35.20;57.60;;;;;;951816;149;27368;-75
2023/09/09 07:00:04;;;;;;;3.83;3.52;;;35.50;56.90;;;;;;948737;149;26212;-75
2023/09/09 07:02:29;;;;;;;3.95;3.65;;;35.70;56.50;;;;;;949915;149;26218;-76
2023/09/09 07:04:56;;;;;;;3.35;3.15;;;36.00;55.90;;;;;;951907;147;26164;-76
2023/09/09 07:07:23;;;;;;;4.10;3.80;;;36.30;55.50;;;;;;950472;148;26338;-75
2023/09/09 07:09:49;;;;;;;3.58;3.30;;;36.60;54.80;;;;;;949222;149;26278;-76
2023/09/09 07:12:16;;;;;;;3.60;3.30;;;36.90;53.90;;;;;;951215;149;26179;-76
2023/09/09 07:14:42;;;;;;;3.45;3.22;;;37.20;53.30;;;;;;949631;147;26244;-76
2023/09/09 07:17:09;;;;;;;3.60;3.30;;;37.40;52.70;;;;;;949976;147;26177;-74
2023/09/09 07:19:35;;;;;;;5.62;3.52;;;37.70;52.40;;;;;;949676;147;26340;-76
2023/09/09 07:22:02;;;;;;;4.97;3.40;;;38.00;52.10;;;;;;948920;148;26176;-76
2023/09/09 07:24:29;;;;;;;3.83;3.52;;;38.30;51.40;;;;;;950783;147;27726;-76
2023/09/09 07:26:55;;;;;;;3.22;2.90;;;38.50;50.60;;;;;;951595;147;26237;-76
2023/09/09 07:29:22;;;;;;;3.12;2.92;;;38.80;50.10;;;;;;951683;148;26267;-75
2023/09/09 07:31:48;;;;;;;3.40;3.10;;;39.10;50.00;;;;;;950353;147;26244;-76
2023/09/09 07:34:15;;;;;;;3.72;3.42;;;39.40;49.30;;;;;;950696;147;26232;-75
2023/09/09 07:36:42;;;;;;;3.37;3.17;;;39.70;48.60;;;;;;951076;148;26219;-75
2023/09/09 07:39:08;;;;;;;3.25;2.95;;;40.00;48.10;;;;;;950369;149;26307;-74
2023/09/09 07:41:35;;;;;;;3.40;3.10;;;40.40;47.60;;;;;;950275;148;26353;-73
2023/09/09 07:44:01;;;;;;;3.75;3.45;;;40.70;46.60;;;;;;949989;147;26226;-75
2023/09/09 07:46:28;;;;;;;3.83;3.40;;;40.90;45.80;;;;;;951403;147;26182;-73
2023/09/09 07:48:55;;;;;;;3.62;3.33;;;41.20;45.10;;;;;;950014;148;26288;-74
2023/09/09 07:51:21;;;;;;;3.67;3.37;;;41.30;44.40;;;;;;950685;148;26235;-75
2023/09/09 07:53:48;;;;;;;3.52;3.20;;;41.40;44.00;;;;;;948588;147;26603;-74
2023/09/09 07:56:14;;;;;;;3.42;3.10;;;41.60;44.00;;;;;;949858;147;28134;-74
2023/09/09 07:58:41;;;;;;;3.17;2.98;;;41.70;43.30;;;;;;949690;147;26234;-75
2023/09/09 08:01:08;;;;;;;3.27;3.08;;;41.80;42.90;;;;;;948313;147;26301;-75
2023/09/09 08:03:34;;;;;;;6.03;3.25;;;42.00;42.60;;;;;;948708;147;26249;-73
2023/09/09 08:06:06;;;;;;;3.80;3.50;;;42.10;42.30;;;;;;949884;147;28373;-74
2023/09/09 08:08:30;;;;;;;3.72;3.08;;;42.30;42.00;;;;;;949134;147;26398;-74
2023/09/09 08:10:56;;;;;;;3.05;2.80;;;42.50;42.00;;;;;;949526;147;26278;-75
2023/09/09 08:13:23;;;;;;;3.55;3.25;;;42.60;41.60;;;;;;950566;147;26372;-73
2023/09/09 08:15:49;;;;;;;3.10;2.90;;;42.80;41.30;;;;;;948405;147;26289;-74
2023/09/09 08:18:16;;;;;;;3.17;2.98;;;43.10;41.00;;;;;;948463;147;26288;-73
2023/09/09 08:20:43;;;;;;;3.05;2.85;;;43.30;40.20;;;;;;951163;147;26266;-75
2023/09/09 08:23:09;;;;;;;3.15;2.95;;;43.50;40.00;;;;;;949690;147;28236;-75
2023/09/09 08:25:36;;;;;;;2.95;2.75;;;43.70;39.60;;;;;;949264;147;26219;-72
2023/09/09 08:28:03;;;;;;;3.20;2.90;;;43.80;39.40;;;;;;949099;148;28138;-73
2023/09/09 08:30:29;;;;;;;2.85;2.65;;;43.90;39.10;;;;;;949234;147;26261;-74
2023/09/09 08:32:56;;;;;;;3.25;3.05;;;44.10;38.90;;;;;;950122;147;26317;-75
2023/09/09 08:35:22;;;;;;;2.77;2.58;;;44.30;38.60;;;;;;949205;147;26281;-74
2023/09/09 08:37:49;;;;;;;3.10;2.77;;;44.50;38.20;;;;;;948687;147;26240;-73
2023/09/09 08:40:15;;;;;;;3.08;2.80;;;44.70;37.80;;;;;;950273;147;26272;-74
2023/09/09 08:42:42;;;;;;;3.10;2.90;;;44.90;37.60;;;;;;949905;148;26309;-75
2023/09/09 08:45:27;;;;;;;2.98;2.77;;;45.20;37.10;;;;;;950164;147;26256;-74
2023/09/09 08:47:53;;;;;;;3.02;2.83;;;45.40;37.30;;;;;;949908;147;26366;-75
2023/09/09 08:50:20;;;;;;;3.22;2.80;;;45.50;36.50;;;;;;952855;148;26245;-75
2023/09/09 08:52:46;;;;;;;2.80;2.60;;;45.60;36.00;;;;;;954126;147;26252;-75
2023/09/09 08:55:13;;;;;;;2.55;2.45;;;45.80;35.80;;;;;;953727;147;26350;-75
2023/09/09 08:57:40;;;;;;;2.95;2.75;;;45.90;35.60;;;;;;954727;146;26633;-75
2023/09/09 09:00:06;;;;;;;2.87;2.67;;;46.10;35.30;;;;;;956231;146;26260;-75
2023/09/09 09:02:33;;;;;;;2.92;2.72;;;46.20;34.90;;;;;;955172;146;26307;-75
2023/09/09 09:04:59;;;;;;;3.50;3.20;;;46.40;34.70;;;;;;954211;146;26331;-75
2023/09/09 09:07:27;;;;;;;3.00;2.80;;;46.40;34.30;;;;;;954036;146;26246;-75
2023/09/09 09:09:53;;;;;;;2.72;2.62;;;46.50;34.10;;;;;;955386;149;26428;-75
2023/09/09 09:12:19;;;;;;;3.00;2.80;;;46.50;33.80;;;;;;955108;147;26252;-75
2023/09/09 09:14:46;;;;;;;3.30;3.10;;;46.60;33.90;;;;;;955249;146;26217;-75
2023/09/09 09:17:12;;;;;;;2.90;2.70;;;46.70;33.80;;;;;;954060;146;26258;-75
2023/09/09 09:19:39;;;;;;;3.33;3.00;;;46.70;33.40;;;;;;955567;146;26241;-76
2023/09/09 09:22:06;;;;;;;2.87;2.67;;;46.80;33.20;;;;;;954844;147;26608;-75
2023/09/09 09:24:32;;;;;;;3.58;2.77;;;46.80;32.90;;;;;;953708;146;26263;-75
2023/09/09 09:26:59;;;;;;;3.12;2.92;;;46.80;32.00;;;;;;953505;147;26361;-75
2023/09/09 09:29:25;;;;;;;2.75;2.55;;;46.80;32.50;;;;;;954864;147;26252;-75
2023/09/09 09:31:52;;;;;;;3.33;3.00;;;46.80;32.50;;;;;;952763;147;26199;-75
2023/09/09 09:34:22;;;;;;;3.52;2.95;;;46.70;32.40;;;;;;954499;146;26340;-75
2023/09/09 09:36:48;;;;;;;2.80;2.60;;;46.70;32.10;;;;;;953289;146;26366;-76
2023/09/09 09:39:15;;;;;;;2.90;2.70;;;46.70;32.20;;;;;;955446;146;26259;-76
2023/09/09 09:41:41;;;;;;;2.98;2.77;;;46.60;32.00;;;;;;954744;146;26399;-76
2023/09/09 09:44:08;;;;;;;2.85;2.65;;;46.50;31.60;;;;;;955653;147;28167;-76
2023/09/09 09:46:34;;;;;;;4.25;3.20;;;46.30;31.60;;;;;;952076;146;26226;-76
2023/09/09 09:49:01;;;;;;;3.05;2.85;;;46.00;31.40;;;;;;954261;146;27866;-76
2023/09/09 09:51:28;;;;;;;2.85;2.65;;;45.80;31.30;;;;;;953425;146;26197;-76
2023/09/09 09:53:54;;;;;;;3.17;2.90;;;45.40;31.30;;;;;;954848;149;26704;-76
2023/09/09 09:56:21;;;;;;;2.92;2.72;;;45.00;31.40;;;;;;954797;146;26216;-74
2023/09/09 09:58:47;;;;;;;3.55;3.35;;;44.60;31.40;;;;;;957936;148;26590;-77
2023/09/09 10:01:14;;;;;;;3.45;3.20;;;44.10;31.60;;;;;;956389;148;26271;-73
2023/09/09 10:03:55;;;;;;;3.30;3.10;;;43.70;32.00;;;;;;958315;146;26314;-76
2023/09/09 10:06:16;;;;;;;3.70;3.30;;;43.20;32.00;;;;;;955826;146;26243;-75
2023/09/09 10:08:42;;;;;;;3.77;3.47;;;42.70;32.10;;;;;;956556;149;26373;-76
2023/09/09 10:11:10;;;;;;;3.87;3.58;;;42.20;32.80;;;;;;955223;148;26250;-73
2023/09/09 10:13:38;;;;;;;3.92;3.62;;;41.70;32.50;;;;;;954778;148;26268;-73
2023/09/09 10:16:02;;;;;;;5.45;3.60;;;41.30;33.10;;;;;;955228;146;26276;-75
2023/09/09 10:18:29;;;;;;;4.00;3.65;;;40.80;33.40;;;;;;957035;146;26336;-73
2023/09/09 10:20:55;;;;;;;5.00;3.80;;;40.40;33.60;;;;;;956900;149;26280;-75
2023/09/09 10:23:22;;;;;;;3.90;3.60;;;40.00;33.80;;;;;;956111;148;26231;-73
2023/09/09 10:25:48;;;;;;;4.70;3.77;;;39.60;34.20;;;;;;957404;146;26232;-73
2023/09/09 10:28:15;;;;;;;5.30;3.70;;;39.20;34.50;;;;;;957597;148;26877;-76
2023/09/09 10:30:42;;;;;;;4.85;3.60;;;38.80;34.80;;;;;;956834;146;26343;-73
2023/09/09 10:33:08;;;;;;;4.12;3.65;;;38.50;35.20;;;;;;959073;149;26207;-73
2023/09/09 10:35:35;;;;;;;5.10;3.80;;;38.10;35.50;;;;;;957521;148;26208;-73
2023/09/09 10:38:01;;;;;;;4.40;4.00;;;37.80;35.80;;;;;;959053;148;27312;-73
2023/09/09 10:40:28;;;;;;;4.42;4.05;;;37.40;36.10;;;;;;958740;146;26356;-76
2023/09/09 10:42:55;;;;;;;4.37;3.67;;;37.20;36.60;;;;;;957721;149;27332;-75
2023/09/09 10:45:30;;;;;;;4.33;4.03;;;36.90;36.90;;;;;;958124;146;27303;-72
2023/09/09 10:47:56;;;;;;;4.47;4.08;;;36.70;37.20;;;;;;958649;148;27749;-74
2023/09/09 10:50:23;;;;;;;4.85;4.35;;;36.50;37.50;;;;;;959077;149;27332;-72
2023/09/09 10:52:52;;;;;;;4.50;4.10;;;36.30;37.80;;;;;;955082;148;27436;-74
2023/09/09 10:55:19;;;;;;;4.20;3.85;;;36.20;38.10;;;;;;948168;146;27510;-73
2023/09/09 10:57:45;;;;;;;4.08;3.77;;;36.10;38.30;;;;;;953213;147;26235;-74
2023/09/09 11:00:12;;;;;;;4.28;3.98;;;35.90;38.40;;;;;;953301;148;27353;-74
2023/09/09 11:02:47;;;;;;;5.90;3.90;;;35.80;38.70;;;;;;949157;148;27322;-73
2023/09/09 11:05:14;;;;;;;4.17;3.87;;;35.70;38.80;;;;;;954212;146;27327;-73
2023/09/09 11:07:43;;;;;;;4.50;4.10;;;35.60;38.90;;;;;;954741;149;27328;-75
2023/09/09 11:10:10;;;;;;;4.47;4.08;;;35.50;39.00;;;;;;954571;148;27467;-74
2023/09/09 11:12:37;;;;;;;3.95;3.62;;;35.40;39.20;;;;;;954248;148;27293;-72
2023/09/09 11:15:09;;;;;;;4.05;3.75;;;35.30;39.20;;;;;;955552;146;27284;-74
2023/09/09 11:17:36;;;;;;;5.75;3.87;;;35.20;39.40;;;;;;955373;148;27410;-75
2023/09/09 11:20:03;;;;;;;3.72;3.52;;;35.20;40.00;;;;;;954259;148;26359;-74
2023/09/09 11:22:29;;;;;;;4.25;3.95;;;35.10;40.20;;;;;;956153;147;27457;-73
2023/09/09 11:24:59;;;;;;;3.90;3.60;;;35.00;40.10;;;;;;955694;146;27445;-72
2023/09/09 11:27:25;;;;;;;4.08;3.72;;;35.00;40.40;;;;;;956567;148;27301;-76
2023/09/09 11:29:51;;;;;;;4.50;4.10;;;34.90;40.40;;;;;;954930;146;27331;-73
2023/09/09 11:32:25;;;;;;;4.12;3.60;;;34.90;40.40;;;;;;955730;148;27429;-76
2023/09/09 11:34:51;;;;;;;4.05;3.75;;;34.80;40.40;;;;;;955912;146;27278;-72
2023/09/09 11:37:17;;;;;;;3.83;3.52;;;34.80;40.60;;;;;;954792;147;27428;-75
2023/09/09 11:39:44;;;;;;;3.70;3.40;;;34.80;40.60;;;;;;954900;147;27328;-73
2023/09/09 11:42:10;;;;;;;3.55;3.30;;;34.70;40.40;;;;;;954930;148;27450;-72
2023/09/09 11:44:37;;;;;;;4.67;4.28;;;34.70;40.50;;;;;;955282;146;27320;-74
2023/09/09 11:47:03;;;;;;;3.60;3.40;;;34.70;40.70;;;;;;950388;149;27411;-74
2023/09/09 11:49:30;;;;;;;3.98;3.67;;;34.70;40.90;;;;;;955432;147;27412;-76
2023/09/09 11:51:57;;;;;;;3.75;3.45;;;34.60;40.60;;;;;;953118;146;27431;-73
2023/09/09 11:54:23;;;;;;;4.05;3.65;;;34.60;40.70;;;;;;946038;148;27396;-74
2023/09/09 11:56:50;;;;;;;4.22;3.92;;;34.50;40.60;;;;;;944899;149;27470;-73
2023/09/09 11:59:16;;;;;;;5.45;4.17;;;34.50;40.70;;;;;;946258;148;27343;-73
2023/09/09 12:01:43;;;;;;;3.83;3.45;;;34.40;40.90;;;;;;946161;149;27426;-75
2023/09/09 12:04:10;;;;;;;4.40;4.00;;;34.30;41.20;;;;;;945662;148;27318;-73
2023/09/09 12:06:36;;;;;;;4.20;3.87;;;34.20;41.20;;;;;;945102;149;27354;-73
2023/09/09 12:09:04;;;;;;;3.58;3.30;;;34.20;41.30;;;;;;945528;148;27350;-73
2023/09/09 12:11:29;;;;;;;4.25;3.95;;;34.10;41.40;;;;;;946774;148;27325;-76
2023/09/09 12:13:56;;;;;;;4.10;3.80;;;34.10;41.50;;;;;;946170;148;27341;-73
2023/09/09 12:16:23;;;;;;;3.58;3.30;;;34.00;41.60;;;;;;945108;148;27266;-75
2023/09/09 12:18:52;;;;;;;3.72;3.42;;;34.00;41.50;;;;;;946520;148;27322;-75
2023/09/09 12:21:19;;;;;;;3.77;3.33;;;33.90;41.90;;;;;;945847;148;27361;-75
2023/09/09 12:23:46;;;;;;;4.10;3.75;;;33.90;41.90;;;;;;946461;149;27328;-75
2023/09/09 12:26:15;;;;;;;5.22;3.50;;;33.80;41.90;;;;;;945872;149;27325;-75
2023/09/09 12:28:41;;;;;;;3.92;3.62;;;33.80;41.90;;;;;;945200;148;27347;-75
2023/09/09 12:31:08;;;;;;;3.92;3.58;;;33.80;41.90;;;;;;946059;149;27336;-75
2023/09/09 12:33:38;;;;;;;3.45;3.25;;;33.80;41.80;;;;;;946626;148;27329;-75
2023/09/09 12:36:04;;;;;;;4.17;3.87;;;33.70;41.90;;;;;;943072;148;27435;-75
2023/09/09 12:38:31;;;;;;;4.10;3.80;;;33.70;41.90;;;;;;945494;148;27377;-75
2023/09/09 12:41:06;;;;;;;3.80;3.50;;;33.70;42.10;;;;;;944706;148;27359;-75
2023/09/09 12:43:32;;;;;;;3.50;3.30;;;33.70;42.30;;;;;;946519;148;27333;-75
2023/09/09 12:46:05;;;;;;;3.98;3.67;;;33.70;42.20;;;;;;947800;148;27270;-75